Time;durP1;ratioP1;P1;durP2;ratioP2;P2;SDS_P1;SDS_P2;PMS_P1;PMS_P2;Temp;Humidity;BMP_temperature;BMP_pressure;BME280_temperature;BME280_humidity;BME280_pressure;Samples;Min_cycle;Max_cycle;Signal;HPM_P1;HPM_P2
2021/12/10 00:00:39;;;;;;;34.33;18.40;;;;;;;1.30;100.00;99826.91;5093906;28;20572;-82
2021/12/10 00:03:11;;;;;;;38.20;17.83;;;;;;;1.33;100.00;99820.84;5093661;28;20034;-79
2021/12/10 00:05:51;;;;;;;28.95;17.50;;;;;;;1.35;100.00;99812.25;5092992;28;20107;-80
2021/12/10 00:08:17;;;;;;;32.70;17.92;;;;;;;1.43;100.00;99815.31;5093756;28;20073;-84
2021/12/10 00:10:46;;;;;;;34.70;17.48;;;;;;;1.55;99.65;99808.88;5093496;28;20475;-81
2021/12/10 00:13:12;;;;;;;33.17;18.05;;;;;;;1.67;99.67;99800.75;5093529;28;20073;-76
2021/12/10 00:15:40;;;;;;;30.17;16.25;;;;;;;1.76;99.16;99788.50;5109202;28;20059;-83
2021/12/10 00:18:09;;;;;;;27.83;14.93;;;;;;;1.77;98.04;99778.28;5091597;28;20032;-85
2021/12/10 00:20:36;;;;;;;25.50;16.27;;;;;;;1.90;97.96;99784.47;5093530;28;20387;-77
2021/12/10 00:23:10;;;;;;;25.65;15.27;;;;;;;1.96;97.24;99776.56;5093401;28;20051;-80
2021/12/10 00:25:40;;;;;;;25.23;14.32;;;;;;;1.97;96.89;99762.97;5093192;28;20415;-74
2021/12/10 00:28:19;;;;;;;25.15;14.45;;;;;;;1.97;96.22;99752.78;5093199;28;20031;-80
2021/12/10 00:33:55;;;;;;;24.38;13.90;;;;;;;2.07;95.51;99749.81;5093055;28;20040;-83
2021/12/10 00:36:21;;;;;;;25.35;13.50;;;;;;;2.15;95.54;99755.34;5093262;28;20102;-84
2021/12/10 00:38:48;;;;;;;24.05;13.85;;;;;;;2.18;94.99;99734.88;5093351;28;20031;-83
2021/12/10 00:41:14;;;;;;;21.75;12.27;;;;;;;2.20;94.96;99725.44;5093114;28;20043;-82
2021/12/10 00:43:40;;;;;;;25.25;13.95;;;;;;;1.93;94.41;99684.22;5093044;28;20459;-81
2021/12/10 00:46:06;;;;;;;20.40;11.93;;;;;;;1.96;94.59;99695.09;5092798;28;20039;-82
2021/12/10 00:48:33;;;;;;;22.15;11.02;;;;;;;1.97;94.43;99699.31;5093056;28;20124;-82
2021/12/10 00:51:00;;;;;;;21.17;11.57;;;;;;;2.13;94.15;99712.13;5092933;28;20456;-83
2021/12/10 00:53:26;;;;;;;21.80;10.82;;;;;;;2.15;94.09;99701.88;5092858;28;20028;-83
2021/12/10 00:55:52;;;;;;;20.08;10.57;;;;;;;2.11;93.42;99700.38;5092977;28;20032;-84
2021/12/10 00:58:18;;;;;;;16.45;9.95;;;;;;;1.99;93.78;99689.06;5092972;28;20024;-83
2021/12/10 01:00:49;;;;;;;17.92;9.68;;;;;;;1.93;93.59;99690.13;5093079;28;20028;-84
2021/12/10 01:03:18;;;;;;;18.00;9.57;;;;;;;1.82;94.05;99683.91;5092951;28;20481;-80
2021/12/10 01:05:46;;;;;;;18.77;10.00;;;;;;;1.77;94.09;99679.03;5092604;28;20024;-83
2021/12/10 01:08:12;;;;;;;16.92;9.98;;;;;;;1.72;94.43;99668.22;5092897;28;20127;-83
2021/12/10 01:10:44;;;;;;;18.73;9.32;;;;;;;1.66;94.69;99659.13;5092718;28;20047;-84
2021/12/10 01:13:15;;;;;;;17.50;9.80;;;;;;;1.58;94.84;99647.66;5092644;28;20107;-79
2021/12/10 01:16:06;;;;;;;17.58;9.50;;;;;;;1.57;94.78;99644.25;5092769;28;20047;-82
2021/12/10 01:27:02;;;;;;;18.98;10.38;;;;;;;1.36;95.31;99615.53;5091791;28;20051;-83
2021/12/10 01:29:35;;;;;;;18.17;10.38;;;;;;;1.34;95.95;99608.88;5092687;28;20024;-83
2021/12/10 01:32:04;;;;;;;20.70;10.75;;;;;;;1.30;95.88;99604.81;5092626;28;20042;-84
2021/12/10 01:34:29;;;;;;;21.45;11.02;;;;;;;1.29;96.18;99593.81;5092561;28;20410;-84
2021/12/10 01:36:55;;;;;;;17.33;10.57;;;;;;;1.15;95.84;99583.44;5092629;28;20032;-83
2021/12/10 01:39:25;;;;;;;21.17;10.60;;;;;;;1.23;95.97;99599.16;5092727;28;20019;-85
2021/12/10 01:41:57;;;;;;;21.33;11.75;;;;;;;1.20;96.55;99589.16;5092584;28;20016;-84
2021/12/10 01:44:30;;;;;;;;;;;;;;;1.18;96.13;99579.91;5093159;28;20016;-83
2021/12/10 01:46:58;;;;;;;19.45;10.82;;;;;;;1.13;96.38;99573.31;5092644;28;19916;-85
2021/12/10 01:49:24;;;;;;;21.20;11.23;;;;;;;1.13;96.30;99577.59;5092509;28;20047;-85
2021/12/10 01:51:51;;;;;;;23.40;10.88;;;;;;;1.13;96.75;99567.41;5092667;28;20020;-83
2021/12/10 01:54:23;;;;;;;25.02;11.93;;;;;;;1.12;96.47;99568.31;5092378;28;20024;-84
2021/12/10 01:56:49;;;;;;;;;;;;;;;1.13;96.45;99562.34;5092735;28;20024;-84
2021/12/10 01:59:18;;;;;;;22.42;9.82;;;;;;;1.10;96.35;99558.22;5092506;28;19912;-85
2021/12/10 02:01:47;;;;;;;19.40;10.30;;;;;;;1.12;96.36;99560.69;5092288;28;20093;-85
2021/12/10 02:04:17;;;;;;;23.17;9.90;;;;;;;1.10;96.91;99560.75;5092204;28;20060;-84
2021/12/10 02:06:43;;;;;;;18.95;9.57;;;;;;;1.11;96.63;99548.88;5092282;28;20073;-85
2021/12/10 02:09:10;;;;;;;23.25;10.05;;;;;;;1.09;96.67;99545.59;5092209;28;20036;-85
2021/12/10 02:11:35;;;;;;;21.52;9.43;;;;;;;1.09;96.58;99541.31;5107803;28;20476;-82
2021/12/10 02:14:01;;;;;;;20.25;9.20;;;;;;;1.10;96.42;99537.88;5092159;28;20050;-84
2021/12/10 02:16:27;;;;;;;18.48;8.80;;;;;;;1.10;96.41;99531.97;5092262;28;20032;-85
2021/12/10 02:18:53;;;;;;;17.08;8.35;;;;;;;1.11;96.79;99526.81;5092270;28;20405;-84
2021/12/10 02:21:24;;;;;;;20.15;8.50;;;;;;;1.12;96.72;99514.94;5092332;28;20123;-85
2021/12/10 02:23:56;;;;;;;15.60;8.05;;;;;;;1.11;96.25;99509.03;5092254;28;20437;-84
2021/12/10 02:26:24;;;;;;;17.15;8.32;;;;;;;1.13;96.53;99507.22;5092240;28;20365;-85
2021/12/10 02:28:50;;;;;;;15.18;7.57;;;;;;;1.14;96.06;99502.97;5093744;28;20042;-83
2021/12/10 02:31:16;;;;;;;19.98;7.55;;;;;;;1.02;96.02;99480.66;5094318;28;20044;-83
2021/12/10 02:33:41;;;;;;;15.10;7.13;;;;;;;0.94;96.26;99459.84;5095580;28;20527;-84
2021/12/10 02:36:11;;;;;;;16.10;8.45;;;;;;;1.01;96.21;99453.59;5095568;28;20055;-84
2021/12/10 02:38:49;;;;;;;15.00;7.38;;;;;;;1.16;95.98;99470.66;5095464;28;20482;-83
2021/12/10 02:41:17;;;;;;;15.02;6.82;;;;;;;1.17;95.79;99468.94;5095398;28;20039;-84
2021/12/10 02:43:43;;;;;;;15.15;6.90;;;;;;;1.18;96.12;99470.59;5095496;28;20028;-85
2021/12/10 02:46:09;;;;;;;13.00;6.32;;;;;;;1.19;95.98;99464.63;5095337;28;20368;-83
2021/12/10 02:48:34;;;;;;;15.73;7.40;;;;;;;1.20;95.71;99461.19;5095542;28;20464;-84
2021/12/10 02:51:02;;;;;;;16.20;6.50;;;;;;;1.20;95.64;99451.03;5095065;28;20028;-84
2021/12/10 02:53:30;;;;;;;11.82;6.22;;;;;;;1.06;95.53;99428.75;5095347;28;20028;-85
2021/12/10 02:55:57;;;;;;;13.23;7.03;;;;;;;1.18;95.42;99442.63;5095212;28;20039;-83
2021/12/10 02:58:24;;;;;;;13.27;6.82;;;;;;;1.24;95.52;99453.34;5095202;28;20028;-84
2021/12/10 03:00:55;;;;;;;16.02;6.90;;;;;;;1.27;95.60;99444.72;5095224;28;20028;-84
2021/12/10 03:03:21;;;;;;;12.43;5.95;;;;;;;1.30;95.04;99435.25;5095056;28;20035;-84
2021/12/10 03:05:47;;;;;;;12.52;5.78;;;;;;;1.35;94.83;99429.94;5094870;28;20036;-85
2021/12/10 03:08:13;;;;;;;16.52;6.13;;;;;;;1.37;94.60;99423.88;5095188;28;20460;-82
2021/12/10 03:10:39;;;;;;;14.73;5.70;;;;;;;1.35;94.47;99420.59;5095145;28;20487;-79
2021/12/10 03:13:06;;;;;;;12.80;6.07;;;;;;;1.36;94.34;99418.88;5094789;28;20081;-82
2021/12/10 03:15:34;;;;;;;10.60;5.00;;;;;;;1.35;94.50;99423.13;5094887;28;20383;-85
2021/12/10 03:18:03;;;;;;;17.05;6.35;;;;;;;1.32;94.55;99410.56;5094865;28;20023;-84
2021/12/10 03:20:29;;;;;;;14.57;6.55;;;;;;;1.35;94.04;99415.50;5094608;28;20028;-84
2021/12/10 03:22:56;;;;;;;13.75;6.05;;;;;;;1.36;93.91;99406.97;5094852;28;20031;-85
2021/12/10 03:25:22;;;;;;;15.38;6.30;;;;;;;1.35;94.24;99395.16;5093434;28;20047;-84
2021/12/10 03:27:48;;;;;;;12.43;5.65;;;;;;;1.34;94.03;99390.16;5094482;28;20031;-85
2021/12/10 03:30:21;;;;;;;13.32;5.57;;;;;;;1.34;93.82;99385.06;5094613;28;20020;-83
2021/12/10 03:32:47;;;;;;;13.80;5.47;;;;;;;1.35;94.00;99386.72;5094169;28;20028;-85
2021/12/10 03:35:19;;;;;;;10.73;5.00;;;;;;;1.35;93.58;99377.34;5094631;28;20028;-85
2021/12/10 03:37:45;;;;;;;13.45;5.63;;;;;;;1.15;93.50;99337.63;5094636;28;20434;-84
2021/12/10 03:40:14;;;;;;;12.10;4.93;;;;;;;1.35;93.32;99367.19;5094273;28;20031;-83
2021/12/10 03:42:40;;;;;;;10.40;4.93;;;;;;;1.36;93.32;99365.47;5094134;28;20027;-84
2021/12/10 03:45:08;;;;;;;11.73;5.00;;;;;;;1.22;93.29;99339.88;5094130;28;20032;-84
2021/12/10 03:47:33;;;;;;;14.20;5.15;;;;;;;1.40;93.19;99361.88;5094037;28;20105;-83
2021/12/10 03:49:59;;;;;;;8.93;5.07;;;;;;;1.40;93.49;99354.25;5094361;28;20059;-85
2021/12/10 03:52:25;;;;;;;11.43;5.25;;;;;;;1.42;93.43;99347.38;5094343;28;20411;-82
2021/12/10 03:54:50;;;;;;;12.40;4.85;;;;;;;1.43;93.06;99344.75;5094232;28;20032;-84
2021/12/10 03:57:18;;;;;;;11.93;5.20;;;;;;;1.28;92.78;99312.44;5093989;28;20016;-83
2021/12/10 03:59:44;;;;;;;13.77;5.05;;;;;;;1.35;92.66;99318.88;5093941;28;20020;-85
2021/12/10 04:02:11;;;;;;;14.20;5.75;;;;;;;1.54;92.61;99333.22;5093877;28;20107;-82
2021/12/10 04:04:49;;;;;;;12.82;4.95;;;;;;;1.58;92.34;99332.19;5093690;28;20103;-83
2021/12/10 04:07:19;;;;;;;13.20;5.03;;;;;;;1.61;92.34;99327.75;5092538;28;20033;-83
2021/12/10 04:09:44;;;;;;;12.50;4.55;;;;;;;1.64;92.01;99325.03;5093899;28;20032;-83
2021/12/10 04:12:10;;;;;;;12.00;4.55;;;;;;;1.70;92.00;99323.94;5093983;28;20102;-83
2021/12/10 04:14:38;;;;;;;12.90;5.00;;;;;;;1.78;91.73;99321.00;5092207;28;20036;-83
2021/12/10 04:17:05;;;;;;;12.02;5.47;;;;;;;1.75;91.50;99295.69;5093416;28;20036;-83
2021/12/10 04:19:35;;;;;;;11.48;4.95;;;;;;;1.78;90.84;99295.56;5109419;28;20030;-82
2021/12/10 04:22:03;;;;;;;11.15;4.65;;;;;;;1.93;90.60;99304.91;5093609;28;20387;-81
2021/12/10 04:24:31;;;;;;;14.32;5.35;;;;;;;1.96;90.69;99295.38;5093569;28;20055;-85
2021/12/10 04:26:57;;;;;;;10.07;4.80;;;;;;;1.90;90.52;99272.00;5093463;28;20024;-83
2021/12/10 04:29:23;;;;;;;13.43;5.07;;;;;;;2.05;90.32;99278.00;5093383;28;20024;-83
2021/12/10 04:31:51;;;;;;;11.05;4.63;;;;;;;1.75;89.99;99240.53;5093251;28;20026;-84
2021/12/10 04:34:17;;;;;;;13.30;5.32;;;;;;;2.08;90.11;99278.69;5093230;28;20052;-80
2021/12/10 04:36:43;;;;;;;13.35;4.65;;;;;;;2.07;89.68;99271.94;5093361;28;20040;-78
2021/12/10 04:39:08;;;;;;;14.73;4.93;;;;;;;1.93;89.90;99248.91;5093532;28;20031;-84
2021/12/10 04:41:34;;;;;;;12.57;5.00;;;;;;;1.87;90.17;99231.41;5093258;28;20019;-84
2021/12/10 04:44:00;;;;;;;12.82;5.18;;;;;;;2.04;90.02;99246.63;5093112;28;20028;-81
2021/12/10 04:46:26;;;;;;;9.05;4.22;;;;;;;2.01;89.95;99247.63;5093088;28;20063;-77
2021/12/10 04:49:01;;;;;;;9.43;3.95;;;;;;;1.98;90.17;99229.97;5093295;28;20020;-82
2021/12/10 04:51:31;;;;;;;9.57;4.15;;;;;;;1.95;90.07;99235.19;5092814;28;20051;-83
2021/12/10 04:53:59;;;;;;;10.45;4.40;;;;;;;1.86;89.84;99206.88;5093029;28;20028;-81
2021/12/10 04:56:28;;;;;;;8.38;3.80;;;;;;;1.86;90.16;99207.69;5093273;28;20038;-83
2021/12/10 04:58:54;;;;;;;10.57;4.20;;;;;;;1.90;89.96;99204.09;5092829;28;20035;-84
2021/12/10 05:01:19;;;;;;;9.55;4.00;;;;;;;1.89;89.74;99192.28;5092978;28;20024;-83
2021/12/10 05:03:45;;;;;;;12.15;4.05;;;;;;;1.74;90.22;99170.19;5091810;28;20042;-81
2021/12/10 05:06:10;;;;;;;12.05;4.13;;;;;;;1.69;90.12;99159.44;5092802;28;20475;-84
2021/12/10 05:08:37;;;;;;;8.50;4.60;;;;;;;1.92;89.98;99187.00;5093002;28;20028;-79
2021/12/10 05:11:07;;;;;;;10.15;4.03;;;;;;;1.93;90.54;99183.56;5092692;28;20016;-84
2021/12/10 05:13:34;;;;;;;11.35;3.95;;;;;;;1.94;89.95;99180.09;5092682;28;20032;-83
2021/12/10 05:16:00;;;;;;;11.88;3.60;;;;;;;1.77;90.08;99149.66;5092610;28;20032;-83
2021/12/10 05:18:28;;;;;;;9.45;3.40;;;;;;;1.97;89.35;99187.59;5092986;28;20540;-84
2021/12/10 05:20:55;;;;;;;12.73;3.63;;;;;;;1.98;89.34;99181.59;5093047;28;20024;-82
2021/12/10 05:23:21;;;;;;;10.43;3.60;;;;;;;1.91;89.19;99169.28;5092859;28;20034;-84
2021/12/10 05:25:48;;;;;;;10.05;3.47;;;;;;;1.64;89.66;99130.84;5092577;28;20446;-82
2021/12/10 05:28:13;;;;;;;10.70;3.40;;;;;;;1.99;89.22;99184.97;5092809;28;20028;-84
2021/12/10 05:30:40;;;;;;;11.10;3.28;;;;;;;2.00;89.36;99174.69;5092537;28;20120;-84
2021/12/10 05:33:05;;;;;;;11.23;2.95;;;;;;;1.99;89.29;99170.50;5092420;28;20044;-80
2021/12/10 05:35:33;;;;;;;11.65;3.28;;;;;;;1.99;89.66;99175.59;5092565;28;20024;-83
2021/12/10 05:37:59;;;;;;;12.02;3.45;;;;;;;2.00;89.96;99168.78;5092675;28;20027;-83
2021/12/10 05:40:25;;;;;;;11.13;3.65;;;;;;;1.81;90.09;99135.06;5092585;28;20371;-82
2021/12/10 05:42:52;;;;;;;6.82;3.25;;;;;;;2.00;90.34;99159.41;5092455;28;20157;-83
2021/12/10 05:45:20;;;;;;;13.45;3.10;;;;;;;1.84;89.97;99137.41;5092125;28;20025;-83
2021/12/10 05:47:46;;;;;;;13.00;3.65;;;;;;;1.98;90.61;99153.59;5092442;28;20028;-79
2021/12/10 05:50:15;;;;;;;11.15;3.58;;;;;;;1.99;90.29;99147.59;5092599;28;20023;-80
2021/12/10 05:52:40;;;;;;;11.88;3.88;;;;;;;1.81;90.24;99123.16;5092398;28;20479;-84
2021/12/10 05:55:06;;;;;;;10.82;2.78;;;;;;;2.00;90.36;99148.41;5092296;28;20054;-79
2021/12/10 05:57:31;;;;;;;10.10;2.85;;;;;;;1.83;90.30;99121.34;5092437;28;20024;-83
2021/12/10 05:59:57;;;;;;;8.45;2.47;;;;;;;1.95;89.86;99135.09;5092153;28;20107;-81
2021/12/10 06:02:22;;;;;;;10.23;3.35;;;;;;;2.05;89.89;99140.50;5092808;28;20024;-82
2021/12/10 06:04:48;;;;;;;8.77;3.22;;;;;;;2.09;89.87;99147.91;5095564;28;20024;-82
2021/12/10 06:07:13;;;;;;;13.30;2.95;;;;;;;2.11;89.78;99145.28;5096115;28;20059;-83
2021/12/10 06:09:39;;;;;;;6.70;2.45;;;;;;;1.99;89.28;99124.69;5096249;28;20054;-84
2021/12/10 06:12:05;;;;;;;10.20;2.65;;;;;;;2.15;89.39;99134.81;5096092;28;20024;-83
2021/12/10 06:14:30;;;;;;;9.85;2.85;;;;;;;2.15;89.27;99137.38;5095811;28;20032;-83
2021/12/10 06:16:55;;;;;;;7.25;2.40;;;;;;;2.17;89.32;99135.59;5096016;28;20081;-83
2021/12/10 06:19:22;;;;;;;8.95;2.75;;;;;;;2.18;89.52;99132.13;5095967;28;20028;-81
2021/12/10 06:21:48;;;;;;;9.18;2.50;;;;;;;2.19;88.83;99135.50;5095797;28;20024;-84
2021/12/10 06:24:14;;;;;;;9.02;2.70;;;;;;;2.18;89.22;99126.22;5094255;28;20097;-84
2021/12/10 06:26:39;;;;;;;11.30;3.00;;;;;;;2.21;89.22;99126.03;5095922;28;20024;-76
2021/12/10 06:29:07;;;;;;;9.15;3.15;;;;;;;1.95;89.19;99084.19;5095732;28;20062;-81
2021/12/10 06:31:33;;;;;;;10.50;3.10;;;;;;;2.07;89.13;99101.34;5095431;28;20035;-82
2021/12/10 06:34:00;;;;;;;8.63;2.67;;;;;;;2.19;89.15;99121.03;5095589;28;20499;-80
2021/12/10 06:36:27;;;;;;;9.32;2.60;;;;;;;2.14;88.78;99124.72;5095582;28;20138;-80
2021/12/10 06:38:53;;;;;;;12.15;2.42;;;;;;;1.80;88.95;99072.34;5095734;28;20035;-82
2021/12/10 06:41:19;;;;;;;9.82;3.10;;;;;;;2.06;89.22;99114.97;5095567;28;20024;-83
2021/12/10 06:43:45;;;;;;;8.90;2.65;;;;;;;2.03;89.30;99117.69;5095547;28;20034;-82
2021/12/10 06:46:13;;;;;;;10.02;4.15;;;;;;;1.98;89.13;99128.13;5095202;28;20032;-83
2021/12/10 06:48:38;;;;;;;10.75;2.75;;;;;;;1.64;89.49;99080.78;5094135;28;20053;-82
2021/12/10 06:51:09;;;;;;;9.98;3.05;;;;;;;1.93;90.31;99127.56;5095234;28;20060;-76
2021/12/10 06:53:41;;;;;;;8.43;2.72;;;;;;;1.82;89.91;99118.88;5093993;28;20050;-77
2021/12/10 06:56:07;;;;;;;11.45;3.20;;;;;;;1.97;89.99;99129.06;5095289;28;20108;-80
2021/12/10 06:58:34;;;;;;;8.30;3.38;;;;;;;1.97;89.84;99134.13;5095455;28;20482;-79
2021/12/10 07:01:09;;;;;;;12.27;3.30;;;;;;;2.00;89.43;99141.59;5094784;28;20048;-79
2021/12/10 07:03:35;;;;;;;11.32;2.92;;;;;;;2.05;89.68;99140.50;5095056;28;20031;-81
2021/12/10 07:06:04;;;;;;;9.13;2.83;;;;;;;2.07;89.81;99139.56;5094906;28;20348;-78
2021/12/10 07:08:33;;;;;;;12.38;3.40;;;;;;;1.93;89.67;99108.91;5095150;28;20052;-77
2021/12/10 07:11:00;;;;;;;14.05;4.38;;;;;;;1.95;89.46;99097.75;5094937;28;20038;-79
2021/12/10 07:13:26;;;;;;;11.82;3.55;;;;;;;1.75;89.13;99071.75;5094998;28;20115;-79
2021/12/10 07:15:53;;;;;;;11.05;3.10;;;;;;;2.16;89.07;99130.56;5094305;28;20094;-79
2021/12/10 07:18:19;;;;;;;9.18;2.80;;;;;;;2.18;89.02;99136.41;5094627;28;20032;-81
2021/12/10 07:20:46;;;;;;;11.48;2.85;;;;;;;2.01;89.40;99109.31;5094910;28;20028;-79
2021/12/10 07:23:12;;;;;;;10.48;2.83;;;;;;;2.16;89.47;99128.81;5094614;28;20023;-76
2021/12/10 07:25:37;;;;;;;12.90;3.70;;;;;;;1.93;89.50;99089.38;5094658;28;20028;-82
2021/12/10 07:28:03;;;;;;;9.15;3.25;;;;;;;2.17;89.36;99127.94;5094576;28;20020;-82
2021/12/10 07:30:29;;;;;;;8.95;2.97;;;;;;;2.20;89.70;99132.88;5094469;28;20024;-81
2021/12/10 07:32:55;;;;;;;9.02;2.47;;;;;;;2.21;89.36;99126.84;5094207;28;20027;-82
2021/12/10 07:35:21;;;;;;;10.60;2.53;;;;;;;2.21;89.11;99126.03;5094307;28;20052;-81
2021/12/10 07:37:47;;;;;;;9.30;2.60;;;;;;;2.07;88.98;99098.81;5112603;28;20058;-80
2021/12/10 07:40:16;;;;;;;14.38;2.50;;;;;;;2.27;89.53;99135.91;5115240;28;20103;-82
2021/12/10 07:42:42;;;;;;;9.98;2.70;;;;;;;1.88;89.13;99065.91;5114630;28;20027;-81
2021/12/10 07:45:09;;;;;;;9.40;2.30;;;;;;;2.22;89.14;99110.66;5114543;28;20023;-83
2021/12/10 07:47:37;;;;;;;5.43;2.35;;;;;;;2.35;89.49;99123.53;5114268;28;20106;-79
2021/12/10 07:50:16;;;;;;;8.07;2.70;;;;;;;2.38;89.24;99122.56;5114635;28;20024;-83
2021/12/10 07:52:43;;;;;;;12.48;2.72;;;;;;;2.42;88.90;99126.56;5114372;28;20024;-83
2021/12/10 07:55:11;;;;;;;12.45;3.08;;;;;;;2.43;88.62;99128.19;5112853;28;20032;-83
2021/12/10 07:57:37;;;;;;;10.70;3.05;;;;;;;2.46;88.94;99128.00;5114223;28;20031;-81
2021/12/10 08:00:11;;;;;;;9.63;2.53;;;;;;;2.51;88.88;99133.69;5114181;28;20023;-82
2021/12/10 08:02:36;;;;;;;12.65;2.60;;;;;;;2.23;88.42;99088.56;5114006;28;20429;-79
2021/12/10 08:05:03;;;;;;;10.63;3.05;;;;;;;2.46;88.10;99126.31;5114101;28;20019;-80
2021/12/10 08:07:28;;;;;;;11.75;2.65;;;;;;;2.57;87.96;99143.53;5114104;28;20475;-75
2021/12/10 08:09:54;;;;;;;14.38;2.80;;;;;;;2.61;87.87;99139.91;5112863;28;20026;-80
2021/12/10 08:12:19;;;;;;;10.25;2.72;;;;;;;2.65;87.35;99140.53;5114041;28;20027;-81
2021/12/10 08:14:46;;;;;;;12.05;3.00;;;;;;;2.67;87.02;99139.56;5113816;28;20028;-79
2021/12/10 08:17:12;;;;;;;10.95;2.90;;;;;;;2.55;86.98;99110.47;5113947;28;20031;-83
2021/12/10 08:19:37;;;;;;;11.85;3.67;;;;;;;2.74;87.00;99135.72;5114122;28;20103;-81
2021/12/10 08:22:03;;;;;;;9.40;3.15;;;;;;;2.62;86.78;99108.41;5113959;28;20119;-81
2021/12/10 08:24:29;;;;;;;8.27;2.95;;;;;;;2.84;86.60;99141.91;5113770;28;20034;-82
2021/12/10 08:26:54;;;;;;;9.57;3.38;;;;;;;2.87;86.44;99134.13;5113074;28;20077;-78
2021/12/10 08:29:21;;;;;;;9.07;3.35;;;;;;;2.79;86.36;99118.44;5113506;28;20106;-81
2021/12/10 08:31:47;;;;;;;8.88;3.75;;;;;;;2.79;86.23;99122.72;5113609;28;20020;-81
2021/12/10 08:34:12;;;;;;;8.80;3.40;;;;;;;2.94;85.74;99142.22;5113448;28;20104;-82
2021/12/10 08:36:38;;;;;;;11.45;3.50;;;;;;;2.57;85.37;99084.94;5113641;28;20048;-80
2021/12/10 08:39:06;;;;;;;9.80;3.60;;;;;;;2.73;85.69;99100.94;5113542;28;20099;-81
2021/12/10 08:41:34;;;;;;;9.38;3.65;;;;;;;2.91;85.33;99128.84;5113415;28;20107;-81
2021/12/10 08:44:00;;;;;;;18.23;4.70;;;;;;;2.79;85.09;99105.69;5113583;28;20032;-80
2021/12/10 08:46:27;;;;;;;13.25;4.65;;;;;;;3.01;85.40;99145.22;5113598;28;20036;-82
2021/12/10 08:48:52;;;;;;;14.82;4.53;;;;;;;3.00;84.60;99141.84;5113434;28;20062;-82
2021/12/10 08:51:21;;;;;;;13.07;4.13;;;;;;;3.01;84.57;99142.69;5113520;28;20048;-82
2021/12/10 08:53:47;;;;;;;10.73;4.57;;;;;;;2.92;84.69;99120.25;5113429;28;20023;-81
2021/12/10 08:56:13;;;;;;;14.55;4.90;;;;;;;3.04;85.12;99140.75;5113172;28;20359;-82
2021/12/10 08:58:39;;;;;;;14.07;5.22;;;;;;;3.07;84.92;99144.88;5111910;28;20100;-82
2021/12/10 09:01:12;;;;;;;12.20;5.20;;;;;;;3.10;85.88;99147.25;5113840;28;20024;-75
2021/12/10 09:03:38;;;;;;;14.93;5.57;;;;;;;2.99;85.31;99126.66;5113935;28;20088;-81
2021/12/10 09:06:06;;;;;;;15.02;5.82;;;;;;;3.10;85.78;99139.59;5113438;28;20027;-81
2021/12/10 09:08:31;;;;;;;15.25;5.47;;;;;;;3.16;85.68;99154.53;5113215;28;20024;-76
2021/12/10 09:10:57;;;;;;;14.15;5.18;;;;;;;3.21;86.03;99159.34;5113012;28;20418;-76
2021/12/10 09:13:24;;;;;;;18.33;6.80;;;;;;;3.23;85.83;99152.41;5113095;28;20634;-76
2021/12/10 09:15:57;;;;;;;12.68;5.10;;;;;;;3.26;85.51;99163.28;5111919;28;20039;-79
2021/12/10 09:18:23;;;;;;;13.15;6.55;;;;;;;3.26;85.63;99155.63;5113050;28;20027;-80
2021/12/10 09:20:50;;;;;;;12.88;5.95;;;;;;;3.03;84.72;99112.81;5112979;28;20065;-80
2021/12/10 09:23:19;;;;;;;13.77;6.47;;;;;;;3.32;85.04;99159.53;5112992;28;20486;-82
2021/12/10 09:25:46;;;;;;;12.32;5.85;;;;;;;3.20;84.82;99127.94;5112735;28;20085;-79
2021/12/10 09:28:11;;;;;;;13.68;5.25;;;;;;;3.44;84.24;99161.34;5112709;28;20131;-82
2021/12/10 09:30:42;;;;;;;14.00;5.82;;;;;;;3.49;84.44;99161.91;5110924;28;20118;-83
2021/12/10 09:33:07;;;;;;;13.87;6.20;;;;;;;3.52;84.00;99156.59;5111344;28;20024;-81
2021/12/10 09:35:35;;;;;;;14.88;5.90;;;;;;;3.61;83.83;99162.88;5112750;28;20044;-76
2021/12/10 09:38:01;;;;;;;15.68;6.05;;;;;;;3.65;83.79;99162.63;5114703;28;20084;-81
2021/12/10 09:40:33;;;;;;;11.85;5.72;;;;;;;3.70;83.46;99163.13;5116958;28;20023;-78
2021/12/10 09:42:58;;;;;;;14.32;6.25;;;;;;;3.68;83.38;99151.38;5117019;28;20030;-82
2021/12/10 09:45:28;;;;;;;13.38;6.07;;;;;;;3.69;83.25;99150.47;5116809;28;20363;-83
2021/12/10 09:47:54;;;;;;;13.90;6.03;;;;;;;3.59;83.29;99124.69;5115535;28;20074;-83
2021/12/10 09:50:23;;;;;;;15.93;6.18;;;;;;;3.91;82.79;99167.84;5116729;28;20490;-82
2021/12/10 09:52:51;;;;;;;16.63;6.65;;;;;;;3.96;82.71;99168.38;5116480;28;20031;-86
2021/12/10 09:55:18;;;;;;;10.43;5.72;;;;;;;3.97;82.01;99164.91;5116397;28;20019;-85
2021/12/10 09:57:46;;;;;;;10.68;5.70;;;;;;;3.97;82.37;99159.81;5116855;28;20030;-86
2021/12/10 10:00:21;;;;;;;11.23;6.03;;;;;;;4.05;81.79;99165.25;5116525;28;20118;-83
2021/12/10 10:02:46;;;;;;;14.77;5.70;;;;;;;4.01;81.39;99164.59;5116354;28;20395;-84
2021/12/10 10:05:12;;;;;;;13.23;5.32;;;;;;;4.02;82.03;99163.69;5116351;28;20023;-84
2021/12/10 10:07:38;;;;;;;16.20;5.47;;;;;;;4.05;81.46;99172.09;5116211;28;20364;-83
2021/12/10 10:10:14;;;;;;;14.70;5.03;;;;;;;3.87;80.93;99146.78;5116106;28;20018;-84
2021/12/10 10:12:43;;;;;;;12.43;5.72;;;;;;;4.08;81.34;99171.91;5116328;28;20049;-83
2021/12/10 10:15:14;;;;;;;12.15;4.82;;;;;;;3.96;80.45;99145.41;5116285;28;20487;-82
2021/12/10 10:17:39;;;;;;;12.60;5.03;;;;;;;4.15;81.06;99168.88;5115985;28;20028;-83
2021/12/10 10:20:07;;;;;;;14.43;5.07;;;;;;;3.90;81.86;99123.59;5116196;28;20023;-82
2021/12/10 10:22:35;;;;;;;10.68;4.88;;;;;;;4.25;80.71;99171.66;5116343;28;20051;-84
2021/12/10 10:25:03;;;;;;;14.40;4.97;;;;;;;3.92;80.85;99098.78;5115916;28;20028;-83
2021/12/10 10:27:32;;;;;;;12.48;5.00;;;;;;;4.29;80.38;99158.59;5116362;28;20023;-85
2021/12/10 10:30:18;;;;;;;12.65;5.88;;;;;;;4.22;80.26;99161.63;5116605;28;20050;-85
2021/12/10 10:32:46;;;;;;;14.65;4.72;;;;;;;4.33;80.64;99172.00;5116053;28;20035;-86
2021/12/10 10:35:22;;;;;;;11.15;4.35;;;;;;;4.34;80.56;99177.94;5115544;28;20047;-85
2021/12/10 10:37:49;;;;;;;10.85;4.85;;;;;;;4.19;80.32;99152.41;5115929;28;20047;-84
2021/12/10 10:40:20;;;;;;;13.55;5.07;;;;;;;4.38;80.66;99169.97;5115710;28;20461;-79
2021/12/10 10:42:46;;;;;;;14.60;5.05;;;;;;;4.17;80.35;99126.16;5116079;28;20483;-83
2021/12/10 10:45:20;;;;;;;12.48;5.18;;;;;;;4.46;80.54;99170.28;5116102;28;20106;-82
2021/12/10 10:47:47;;;;;;;12.35;4.50;;;;;;;4.45;79.71;99175.50;5115773;28;20035;-84
2021/12/10 10:50:16;;;;;;;10.48;4.47;;;;;;;4.49;80.24;99172.63;5114722;28;20067;-83
2021/12/10 10:52:50;;;;;;;11.35;4.55;;;;;;;4.48;80.07;99176.13;5115454;28;20032;-80
2021/12/10 10:55:30;;;;;;;10.88;4.60;;;;;;;4.51;80.22;99178.47;5115496;28;20024;-83
2021/12/10 10:58:06;;;;;;;12.00;4.28;;;;;;;4.52;79.57;99177.56;5115489;28;20030;-84
2021/12/10 11:01:14;;;;;;;9.70;4.25;;;;;;;4.56;80.32;99173.88;5115490;28;20031;-82
2021/12/10 11:04:00;;;;;;;13.93;4.85;;;;;;;4.58;79.81;99181.44;5115099;28;20016;-85
2021/12/10 11:06:38;;;;;;;12.15;4.45;;;;;;;4.65;79.94;99181.88;5115199;27;20129;-85
2021/12/10 11:09:27;;;;;;;9.98;4.03;;;;;;;4.64;80.07;99175.97;5115258;28;20538;-87
2021/12/10 11:11:55;;;;;;;12.82;4.50;;;;;;;4.61;79.69;99176.94;5115260;28;20023;-86
2021/12/10 11:14:28;;;;;;;10.85;3.85;;;;;;;4.56;79.68;99183.28;5113729;28;20360;-84
2021/12/10 11:17:21;;;;;;;14.15;4.32;;;;;;;4.50;79.64;99176.00;5114918;28;20465;-84
2021/12/10 11:20:13;;;;;;;10.55;3.70;;;;;;;4.48;80.14;99180.41;5103495;28;20039;-83
2021/12/10 11:22:53;;;;;;;9.60;3.85;;;;;;;4.45;80.43;99181.44;5114920;28;20027;-85
2021/12/10 11:25:25;;;;;;;10.93;3.80;;;;;;;4.28;80.02;99164.59;5114767;28;20111;-83
2021/12/10 11:28:05;;;;;;;13.23;4.43;;;;;;;4.32;80.80;99172.88;5114858;28;20028;-85
2021/12/10 11:30:31;;;;;;;13.38;4.95;;;;;;;4.37;80.25;99173.44;5114695;28;20015;-79
2021/12/10 11:33:18;;;;;;;12.05;5.28;;;;;;;4.48;79.96;99185.53;5113356;28;20028;-81
2021/12/10 11:35:50;;;;;;;13.70;4.85;;;;;;;4.46;79.88;99188.19;5114405;28;20506;-78
2021/12/10 11:38:17;;;;;;;13.57;5.00;;;;;;;4.49;79.83;99187.16;5114777;28;20532;-77
2021/12/10 11:41:01;;;;;;;11.05;4.05;;;;;;;4.49;80.55;99185.41;5114444;28;20024;-83
2021/12/10 11:43:44;;;;;;;12.43;3.95;;;;;;;4.55;79.70;99194.44;5114512;27;20024;-82
2021/12/10 11:46:45;;;;;;;9.07;4.18;;;;;;;4.54;79.36;99197.91;5114127;28;20080;-85
2021/12/10 11:49:27;;;;;;;11.25;3.97;;;;;;;4.53;79.50;99197.09;5114376;28;20024;-84
2021/12/10 11:52:01;;;;;;;11.23;3.97;;;;;;;4.54;79.09;99200.47;5114348;28;20034;-85